createdAt,value
2019-06-10T00:00:54.970Z,309.54
2019-06-10T00:01:53.730Z,308.82
2019-06-10T00:02:53.706Z,308.91
2019-06-10T00:03:53.690Z,311.02
2019-06-10T00:04:53.684Z,308.74
2019-06-10T00:05:53.671Z,308.38
2019-06-10T00:06:53.685Z,308.40
2019-06-10T00:07:53.698Z,309.35
2019-06-10T00:08:53.679Z,308.75
2019-06-10T00:09:53.616Z,309.67
2019-06-10T00:10:53.608Z,311.74
2019-06-10T00:11:53.627Z,309.82
2019-06-10T00:12:55.348Z,310.39
2019-06-10T00:13:53.592Z,311.07
2019-06-10T00:14:53.576Z,310.93
2019-06-10T00:15:53.553Z,317.82
2019-06-10T00:16:53.553Z,313.17
2019-06-10T00:18:13.220Z,313.07
2019-06-10T00:18:54.519Z,310.52
2019-06-10T00:19:53.516Z,306.93
2019-06-10T00:20:53.510Z,309.52
2019-06-10T00:21:53.530Z,311.72
2019-06-10T00:22:53.482Z,309.05
2019-06-10T00:23:53.473Z,310.31
2019-06-10T00:24:53.452Z,309.37
2019-06-10T00:25:53.455Z,310.69
2019-06-10T00:26:53.442Z,310.65
2019-06-10T00:27:53.428Z,309.92
2019-06-10T00:28:53.405Z,310.04
2019-06-10T00:29:53.406Z,312.47
2019-06-10T00:30:53.396Z,312.80
2019-06-10T00:31:53.383Z,308.73
2019-06-10T00:32:53.377Z,315.41
2019-06-10T00:33:53.367Z,314.48
2019-06-10T00:34:53.345Z,309.44
2019-06-10T00:35:53.324Z,312.10
2019-06-10T00:36:53.315Z,313.22
2019-06-10T00:37:53.342Z,310.24
2019-06-10T00:38:53.293Z,311.21
2019-06-10T00:39:53.296Z,313.15
2019-06-10T00:40:53.287Z,313.21
2019-06-10T00:41:53.261Z,307.32
2019-06-10T00:42:53.254Z,311.81
2019-06-10T00:43:53.271Z,313.57
2019-06-10T00:44:53.246Z,311.92
2019-06-10T00:45:53.248Z,311.60
2019-06-10T00:46:53.223Z,312.61
2019-06-10T00:48:07.637Z,311.82
2019-06-10T00:48:54.204Z,313.39
2019-06-10T00:49:53.180Z,315.03
2019-06-10T00:50:53.159Z,312.06
2019-06-10T00:51:53.158Z,313.49
2019-06-10T00:52:53.154Z,311.21
2019-06-10T00:53:53.142Z,313.48
2019-06-10T00:54:53.136Z,313.81
2019-06-10T00:55:53.116Z,312.88
2019-06-10T00:56:53.111Z,312.46
2019-06-10T00:57:53.096Z,313.88
2019-06-10T00:58:53.104Z,313.43
2019-06-10T00:59:53.069Z,313.09
2019-06-10T01:00:53.051Z,312.42
2019-06-10T01:01:53.042Z,310.45
2019-06-10T01:02:53.030Z,311.78
2019-06-10T01:03:53.037Z,313.54
2019-06-10T01:04:53.013Z,311.32
2019-06-10T01:05:53.005Z,310.92
2019-06-10T01:06:52.996Z,310.86
2019-06-10T01:07:52.991Z,310.65
2019-06-10T01:08:52.963Z,310.13
2019-06-10T01:09:52.976Z,312.15
2019-06-10T01:10:52.947Z,310.10
2019-06-10T01:11:52.944Z,312.74
2019-06-10T01:12:52.927Z,310.50
2019-06-10T01:13:52.907Z,309.97
2019-06-10T01:14:52.927Z,311.96
2019-06-10T01:15:52.904Z,311.15
2019-06-10T01:16:52.879Z,313.81
2019-06-10T01:17:52.878Z,309.42
2019-06-10T01:18:53.672Z,310.13
2019-06-10T01:19:52.852Z,313.81
2019-06-10T01:20:52.855Z,312.72
2019-06-10T01:21:52.843Z,312.88
2019-06-10T01:22:52.821Z,311.53
2019-06-10T01:23:52.807Z,310.08
2019-06-10T01:24:52.798Z,311.23
2019-06-10T01:25:52.796Z,309.94
2019-06-10T01:26:52.778Z,310.67
2019-06-10T01:27:52.757Z,313.51
2019-06-10T01:28:52.747Z,309.31
2019-06-10T01:29:52.742Z,311.15
2019-06-10T01:30:52.762Z,311.43
2019-06-10T01:31:52.708Z,308.53
2019-06-10T01:32:52.711Z,309.62
2019-06-10T01:33:52.693Z,308.92
2019-06-10T01:34:52.692Z,311.79
2019-06-10T01:35:52.679Z,310.22
2019-06-10T01:36:52.684Z,309.44
2019-06-10T01:37:52.647Z,308.41
2019-06-10T01:38:52.643Z,309.26
2019-06-10T01:39:52.639Z,310.08
2019-06-10T01:40:52.623Z,311.89
2019-06-10T01:41:52.618Z,309.66
2019-06-10T01:42:52.591Z,309.81
2019-06-10T01:43:52.594Z,309.80
2019-06-10T01:44:52.581Z,310.46
2019-06-10T01:45:52.566Z,310.40
2019-06-10T01:46:52.561Z,309.37
2019-06-10T01:47:52.547Z,308.63
2019-06-10T01:48:52.535Z,310.03
2019-06-10T01:49:52.522Z,311.18
2019-06-10T01:50:52.517Z,310.60
2019-06-10T01:51:52.509Z,309.09
2019-06-10T01:52:52.478Z,311.48
2019-06-10T01:53:52.467Z,307.95
2019-06-10T01:54:52.461Z,311.65
2019-06-10T01:55:52.460Z,309.62
2019-06-10T01:56:52.450Z,309.46
2019-06-10T01:57:52.459Z,307.87
2019-06-10T01:58:52.434Z,310.66
2019-06-10T01:59:52.408Z,309.23
2019-06-10T02:00:52.435Z,308.72
2019-06-10T02:01:52.405Z,309.71
2019-06-10T02:02:52.590Z,309.50
2019-06-10T02:03:52.364Z,310.37
2019-06-10T02:04:52.348Z,309.30
2019-06-10T02:05:52.343Z,310.97
2019-06-10T02:06:52.342Z,309.56
2019-06-10T02:07:52.337Z,309.24
2019-06-10T02:08:52.311Z,311.22
2019-06-10T02:09:52.295Z,308.95
2019-06-10T02:10:52.300Z,309.12
2019-06-10T02:11:52.270Z,310.36
2019-06-10T02:12:52.286Z,309.53
2019-06-10T02:13:52.248Z,312.04
2019-06-10T02:14:52.239Z,311.15
2019-06-10T02:15:52.241Z,310.59
2019-06-10T02:16:52.220Z,309.35
2019-06-10T02:17:52.202Z,309.23
2019-06-10T02:19:00.035Z,310.16
2019-06-10T02:19:53.191Z,309.77
2019-06-10T02:20:52.183Z,312.10
2019-06-10T02:21:52.172Z,309.18
2019-06-10T02:22:52.147Z,308.75
2019-06-10T02:23:52.243Z,310.77
2019-06-10T02:24:52.125Z,309.56
2019-06-10T02:25:52.114Z,308.79
2019-06-10T02:26:52.113Z,308.74
2019-06-10T02:27:52.101Z,309.29
2019-06-10T02:28:52.105Z,308.19
2019-06-10T02:29:52.080Z,308.41
2019-06-10T02:30:55.790Z,308.66
2019-06-10T02:31:52.413Z,310.37
2019-06-10T02:32:52.494Z,308.74
2019-06-10T02:33:52.643Z,310.15
2019-06-10T02:35:03.443Z,311.06
2019-06-10T02:35:53.856Z,311.50
2019-06-10T02:36:53.634Z,311.08
2019-06-10T02:37:54.003Z,310.57
2019-06-10T02:38:53.934Z,313.14
2019-06-10T02:39:54.197Z,314.07
2019-06-10T02:40:53.877Z,310.08
2019-06-10T02:41:53.511Z,309.59
2019-06-10T02:42:53.990Z,315.42
2019-06-10T02:43:53.468Z,323.42
2019-06-10T02:44:54.046Z,327.37
2019-06-10T02:45:53.077Z,319.54
2019-06-10T02:46:54.419Z,321.42
2019-06-10T02:47:53.304Z,321.17
2019-06-10T02:48:54.482Z,316.96
2019-06-10T02:50:01.338Z,318.18
2019-06-10T02:50:53.879Z,311.55
2019-06-10T02:51:53.798Z,313.97
2019-06-10T02:52:53.076Z,319.49
2019-06-10T02:53:53.822Z,318.22
2019-06-10T02:54:53.463Z,312.97
2019-06-10T02:55:53.901Z,312.20
2019-06-10T02:56:53.687Z,318.27
2019-06-10T02:57:53.319Z,316.58
2019-06-10T02:58:53.497Z,311.14
2019-06-10T02:59:54.453Z,304.14
2019-06-10T03:00:54.612Z,313.68
2019-06-10T03:01:53.666Z,315.21
2019-06-10T03:02:53.061Z,317.79
2019-06-10T03:03:54.228Z,312.06
2019-06-10T03:04:53.628Z,308.36
2019-06-10T03:05:53.722Z,315.32
2019-06-10T03:06:54.251Z,315.60
2019-06-10T03:07:53.296Z,315.62
2019-06-10T03:08:54.926Z,314.46
2019-06-10T03:09:53.807Z,312.73
2019-06-10T03:10:54.438Z,309.86
2019-06-10T03:11:53.477Z,315.59
2019-06-10T03:12:52.815Z,311.95
2019-06-10T03:13:53.122Z,313.38
2019-06-10T03:14:52.569Z,312.52
2019-06-10T03:15:52.253Z,311.68
2019-06-10T03:16:52.748Z,317.95
2019-06-10T03:17:52.139Z,309.40
2019-06-10T03:18:52.526Z,319.40
2019-06-10T03:19:53.569Z,318.37
2019-06-10T03:20:52.845Z,316.16
2019-06-10T03:21:52.190Z,318.60
2019-06-10T03:22:52.519Z,319.66
2019-06-10T03:23:53.145Z,316.76
2019-06-10T03:24:52.408Z,314.97
2019-06-10T03:25:52.734Z,314.33
2019-06-10T03:26:52.189Z,316.84
2019-06-10T03:27:52.532Z,314.45
2019-06-10T03:28:52.036Z,313.88
2019-06-10T03:29:52.695Z,313.84
2019-06-10T03:30:55.354Z,314.74
2019-06-10T03:31:55.246Z,316.59
2019-06-10T03:32:55.360Z,314.80
2019-06-10T03:33:54.426Z,315.48
2019-06-10T03:34:54.878Z,313.27
2019-06-10T03:35:52.640Z,316.17
2019-06-10T03:36:53.361Z,315.00
2019-06-10T03:37:52.817Z,311.87
2019-06-10T03:38:53.681Z,315.03
2019-06-10T03:39:53.102Z,313.39
2019-06-10T03:40:52.456Z,313.62
2019-06-10T03:41:52.794Z,310.89
2019-06-10T03:42:52.037Z,310.28
2019-06-10T03:43:53.112Z,311.92
2019-06-10T03:44:52.572Z,314.79
2019-06-10T03:45:53.154Z,314.77
2019-06-10T03:46:52.337Z,314.80
2019-06-10T03:47:52.704Z,313.21
2019-06-10T03:48:52.664Z,312.97
2019-06-10T03:49:53.458Z,311.27
2019-06-10T03:50:52.440Z,316.16
2019-06-10T03:51:52.938Z,314.98
2019-06-10T03:52:52.456Z,317.06
2019-06-10T03:53:53.106Z,316.38
2019-06-10T03:54:52.520Z,313.82
2019-06-10T03:55:52.652Z,315.69
2019-06-10T03:56:52.116Z,316.77
2019-06-10T03:57:52.610Z,318.24
2019-06-10T03:58:52.119Z,317.94
2019-06-10T03:59:52.778Z,318.80
2019-06-10T04:00:52.234Z,318.48
2019-06-10T04:01:52.891Z,322.64
2019-06-10T04:02:53.106Z,321.67
2019-06-10T04:03:52.986Z,319.56
2019-06-10T04:04:52.336Z,318.86
2019-06-10T04:05:52.694Z,320.08
2019-06-10T04:06:53.215Z,318.44
2019-06-10T04:07:52.696Z,317.27
2019-06-10T04:08:52.230Z,316.23
2019-06-10T04:09:52.590Z,315.48
2019-06-10T04:10:52.072Z,315.60
2019-06-10T04:11:52.863Z,315.05
2019-06-10T04:12:52.354Z,315.71
2019-06-10T04:13:53.358Z,315.39
2019-06-10T04:14:52.180Z,317.14
2019-06-10T04:15:53.310Z,314.65
2019-06-10T04:16:52.528Z,316.00
2019-06-10T04:17:53.013Z,314.49
2019-06-10T04:18:53.270Z,316.06
2019-06-10T04:20:07.563Z,314.94
2019-06-10T04:20:52.873Z,318.10
2019-06-10T04:21:53.045Z,315.24
2019-06-10T04:22:52.295Z,314.92
2019-06-10T04:23:52.797Z,315.76
2019-06-10T04:24:52.081Z,317.76
2019-06-10T04:25:52.687Z,312.64
2019-06-10T04:26:52.131Z,316.90
2019-06-10T04:27:52.430Z,316.17
2019-06-10T04:28:52.853Z,317.68
2019-06-10T04:29:52.385Z,315.45
2019-06-10T04:30:53.091Z,316.48
2019-06-10T04:31:52.408Z,315.94
2019-06-10T04:32:52.779Z,316.08
2019-06-10T04:33:52.356Z,315.98
2019-06-10T04:34:52.868Z,315.36
2019-06-10T04:35:52.018Z,316.54
2019-06-10T04:36:52.614Z,317.01
2019-06-10T04:37:52.042Z,316.98
2019-06-10T04:38:52.506Z,317.15
2019-06-10T04:39:52.918Z,316.86
2019-06-10T04:40:52.563Z,316.33
2019-06-10T04:41:52.985Z,316.00
2019-06-10T04:42:52.523Z,315.55
2019-06-10T04:43:53.007Z,316.53
2019-06-10T04:44:52.530Z,316.20
2019-06-10T04:45:52.607Z,316.19
2019-06-10T04:46:52.067Z,315.25
2019-06-10T04:47:52.439Z,315.12
2019-06-10T04:48:53.027Z,316.02
2019-06-10T04:49:52.242Z,315.19
2019-06-10T04:50:53.165Z,316.19
2019-06-10T04:51:52.377Z,316.32
2019-06-10T04:52:52.763Z,316.25
2019-06-10T04:53:52.481Z,315.61
2019-06-10T04:54:52.602Z,315.66
2019-06-10T04:55:52.271Z,316.81
2019-06-10T04:56:52.752Z,315.33
2019-06-10T04:57:52.120Z,315.03
2019-06-10T04:58:52.572Z,315.13
2019-06-10T04:59:50.417Z,315.03
2019-06-10T05:00:52.333Z,315.39
2019-06-10T05:01:52.884Z,316.64
2019-06-10T05:02:52.247Z,316.35
2019-06-10T05:03:52.455Z,315.81
2019-06-10T05:04:50.353Z,314.15
2019-06-10T05:05:52.622Z,315.42
2019-06-10T05:06:52.538Z,313.84
2019-06-10T05:07:52.066Z,314.87
2019-06-10T05:08:50.296Z,313.72
2019-06-10T05:09:52.437Z,314.74
2019-06-10T05:10:50.286Z,314.76
2019-06-10T05:11:52.253Z,314.33
2019-06-10T05:12:52.446Z,314.30
2019-06-10T05:13:50.257Z,313.10
2019-06-10T05:14:52.521Z,314.26
2019-06-10T05:15:52.571Z,315.20
2019-06-10T05:16:50.227Z,314.52
2019-06-10T05:17:52.545Z,315.02
2019-06-10T05:18:54.058Z,315.23
2019-06-10T05:19:50.217Z,315.24
2019-06-10T05:20:57.719Z,315.31
2019-06-10T05:21:52.413Z,314.47
2019-06-10T05:22:50.164Z,316.40
2019-06-10T05:23:52.158Z,316.80
2019-06-10T05:24:50.145Z,315.35
2019-06-10T05:25:52.636Z,316.42
2019-06-10T05:26:52.547Z,317.06
2019-06-10T05:27:52.138Z,315.61
2019-06-10T05:28:52.268Z,315.32
2019-06-10T05:29:50.075Z,314.31
2019-06-10T05:30:50.069Z,313.84
2019-06-10T05:31:52.175Z,316.37
2019-06-10T05:32:52.268Z,315.33
2019-06-10T05:33:50.036Z,314.21
2019-06-10T05:34:52.655Z,315.19
2019-06-10T05:35:50.011Z,313.60
2019-06-10T05:36:52.423Z,314.77
2019-06-10T05:37:49.991Z,315.96
2019-06-10T05:38:52.379Z,316.37
2019-06-10T05:39:49.959Z,316.51
2019-06-10T05:40:51.994Z,315.52
2019-06-10T05:41:50.839Z,315.15
2019-06-10T05:42:49.983Z,316.07
2019-06-10T05:43:52.099Z,313.46
2019-06-10T05:44:52.278Z,314.38
2019-06-10T05:45:49.901Z,314.17
2019-06-10T05:46:49.885Z,315.08
2019-06-10T05:47:49.874Z,314.67
2019-06-10T05:48:52.403Z,316.55
2019-06-10T05:49:49.855Z,317.11
2019-06-10T05:51:00.117Z,314.96
2019-06-10T05:51:52.672Z,315.12
2019-06-10T05:52:51.919Z,315.42
2019-06-10T05:53:49.813Z,316.22
2019-06-10T05:54:51.993Z,316.47
2019-06-10T05:55:49.808Z,314.02
2019-06-10T05:56:52.053Z,312.74
2019-06-10T05:57:49.764Z,316.11
2019-06-10T05:58:52.268Z,314.11
2019-06-10T05:59:52.144Z,313.79
2019-06-10T06:00:49.742Z,314.08
2019-06-10T06:01:49.719Z,312.59
2019-06-10T06:02:52.118Z,314.09
2019-06-10T06:03:49.699Z,314.23
2019-06-10T06:04:49.685Z,312.93
2019-06-10T06:05:49.670Z,313.94
2019-06-10T06:06:49.666Z,312.88
2019-06-10T06:08:04.149Z,314.44
2019-06-10T06:08:53.162Z,313.73
2019-06-10T06:09:49.631Z,314.87
2019-06-10T06:10:49.617Z,314.09
2019-06-10T06:11:49.599Z,314.79
2019-06-10T06:12:49.603Z,314.81
2019-06-10T06:13:52.043Z,315.00
2019-06-10T06:14:49.590Z,313.92
2019-06-10T06:15:49.568Z,315.10
2019-06-10T06:16:49.552Z,313.96
2019-06-10T06:18:04.047Z,315.06
2019-06-10T06:18:52.485Z,314.44
2019-06-10T06:19:49.554Z,312.71
2019-06-10T06:20:49.518Z,314.31
2019-06-10T06:21:49.540Z,312.86
2019-06-10T06:22:49.489Z,313.35
2019-06-10T06:23:49.493Z,311.91
2019-06-10T06:24:49.493Z,314.04
2019-06-10T06:25:49.458Z,314.41
2019-06-10T06:26:49.437Z,312.33
2019-06-10T06:27:49.437Z,314.37
2019-06-10T06:28:49.422Z,314.67
2019-06-10T06:29:49.411Z,312.71
2019-06-10T06:30:49.428Z,314.72
2019-06-10T06:31:49.386Z,314.30
2019-06-10T06:32:49.380Z,316.26
2019-06-10T06:33:49.356Z,313.07
2019-06-10T06:34:49.360Z,312.61
2019-06-10T06:35:49.355Z,310.72
2019-06-10T06:36:49.327Z,312.74
2019-06-10T06:37:49.318Z,313.04
2019-06-10T06:38:49.307Z,312.96
2019-06-10T06:39:49.307Z,310.76
2019-06-10T06:40:49.322Z,312.01
2019-06-10T06:41:49.284Z,315.23
2019-06-10T06:42:49.340Z,313.93
2019-06-10T06:43:49.248Z,315.31
2019-06-10T06:44:49.306Z,311.34
2019-06-10T06:45:49.248Z,310.53
2019-06-10T06:46:49.305Z,310.86
2019-06-10T06:47:49.259Z,311.49
2019-06-10T06:48:52.982Z,312.61
2019-06-10T06:49:49.184Z,312.21
2019-06-10T06:51:02.050Z,312.04
2019-06-10T06:51:56.085Z,313.70
2019-06-10T06:53:19.039Z,312.63
2019-06-10T06:53:53.029Z,312.24
2019-06-10T06:54:50.131Z,311.69
2019-06-10T06:55:49.121Z,313.60
2019-06-10T06:56:49.138Z,310.65
2019-06-10T06:57:49.105Z,312.67
2019-06-10T06:58:49.094Z,313.77
2019-06-10T06:59:49.084Z,312.39
2019-06-10T07:01:03.781Z,311.40
2019-06-10T07:01:52.329Z,314.15
2019-06-10T07:02:49.059Z,311.28
2019-06-10T07:03:49.031Z,311.66
2019-06-10T07:04:49.032Z,313.51
2019-06-10T07:05:49.052Z,313.42
2019-06-10T07:06:49.012Z,313.07
2019-06-10T07:07:48.997Z,313.70
2019-06-10T07:09:03.746Z,313.30
2019-06-10T07:09:49.974Z,316.20
2019-06-10T07:10:48.954Z,316.03
2019-06-10T07:11:48.963Z,315.76
2019-06-10T07:12:48.951Z,318.04
2019-06-10T07:13:48.938Z,313.85
2019-06-10T07:14:48.938Z,315.65
2019-06-10T07:15:48.908Z,313.22
2019-06-10T07:16:48.903Z,310.55
2019-06-10T07:17:48.902Z,312.83
2019-06-10T07:18:50.282Z,310.17
2019-06-10T07:19:48.861Z,313.18
2019-06-10T07:20:48.886Z,304.61
2019-06-10T07:22:06.644Z,310.62
2019-06-10T07:22:49.863Z,308.99
2019-06-10T07:23:48.840Z,310.57
2019-06-10T07:24:48.810Z,311.65
2019-06-10T07:25:48.799Z,307.67
2019-06-10T07:26:52.184Z,310.25
2019-06-10T07:27:49.792Z,311.30
2019-06-10T07:28:48.778Z,309.98
2019-06-10T07:29:48.744Z,310.86
2019-06-10T07:30:52.748Z,308.52
2019-06-10T07:31:51.047Z,309.16
2019-06-10T07:32:48.736Z,313.09
2019-06-10T07:33:48.717Z,312.02
2019-06-10T07:34:48.713Z,309.61
2019-06-10T07:35:48.691Z,306.19
2019-06-10T07:36:48.686Z,309.52
2019-06-10T07:37:48.686Z,310.78
2019-06-10T07:38:49.272Z,309.70
2019-06-10T07:39:48.644Z,309.10
2019-06-10T07:40:48.640Z,309.70
2019-06-10T07:41:48.692Z,307.73
2019-06-10T07:42:48.629Z,311.75
2019-06-10T07:43:49.748Z,308.31
2019-06-10T07:44:48.596Z,309.95
2019-06-10T07:45:48.583Z,309.33
2019-06-10T07:46:48.565Z,308.13
2019-06-10T07:47:48.549Z,309.73
2019-06-10T07:48:52.504Z,309.20
2019-06-10T07:49:49.534Z,310.73
2019-06-10T07:50:48.522Z,303.38
2019-06-10T07:51:48.516Z,310.75
2019-06-10T07:52:48.501Z,308.75
2019-06-10T07:53:48.497Z,313.71
2019-06-10T07:54:48.477Z,310.52
2019-06-10T07:55:48.476Z,308.71
2019-06-10T07:56:50.668Z,306.74
2019-06-10T07:57:49.446Z,311.49
2019-06-10T07:58:48.472Z,311.93
2019-06-10T07:59:48.412Z,309.64
2019-06-10T08:00:48.682Z,310.55
2019-06-10T08:01:51.780Z,307.65
2019-06-10T08:02:49.383Z,310.54
2019-06-10T08:03:48.390Z,312.80
2019-06-10T08:04:48.396Z,308.27
2019-06-10T08:05:48.368Z,313.51
2019-06-10T08:06:50.067Z,308.93
2019-06-10T08:07:49.017Z,308.63
2019-06-10T08:08:48.316Z,312.92
2019-06-10T08:09:48.340Z,313.94
2019-06-10T08:10:48.331Z,310.64
2019-06-10T08:11:48.805Z,311.98
2019-06-10T08:12:48.402Z,314.42
2019-06-10T08:13:48.263Z,314.75
2019-06-10T08:14:48.282Z,312.78
2019-06-10T08:15:48.451Z,315.65
2019-06-10T08:16:48.670Z,319.52
2019-06-10T08:17:48.339Z,310.66
2019-06-10T08:19:16.159Z,313.64
2019-06-10T08:19:51.132Z,316.51
2019-06-10T08:20:48.229Z,308.60
2019-06-10T08:21:49.538Z,313.54
2019-06-10T08:22:54.041Z,309.87
2019-06-10T08:23:49.168Z,313.12
2019-06-10T08:24:48.449Z,308.97
2019-06-10T08:25:53.674Z,311.94
2019-06-10T08:26:49.141Z,312.14
2019-06-10T08:27:49.353Z,313.75
2019-06-10T08:28:48.405Z,312.98
2019-06-10T08:29:49.798Z,312.76
2019-06-10T08:30:49.098Z,309.03
2019-06-10T08:31:49.915Z,309.60
2019-06-10T08:32:53.177Z,311.58
2019-06-10T08:33:49.207Z,311.70
2019-06-10T08:34:48.211Z,305.49
2019-06-10T08:35:56.379Z,305.45
2019-06-10T08:36:50.814Z,313.69
2019-06-10T08:37:48.990Z,307.61
2019-06-10T08:38:48.788Z,305.44
2019-06-10T08:39:48.000Z,305.42
2019-06-10T08:40:48.514Z,306.36
2019-06-10T08:41:49.276Z,313.42
2019-06-10T08:42:48.915Z,310.82
2019-06-10T08:43:48.525Z,309.72
2019-06-10T08:44:48.623Z,310.79
2019-06-10T08:45:48.822Z,304.97
2019-06-10T08:46:48.671Z,312.71
2019-06-10T08:47:49.166Z,310.12
2019-06-10T08:48:49.495Z,310.12
2019-06-10T08:49:49.128Z,311.50
2019-06-10T08:50:49.944Z,312.41
2019-06-10T08:51:50.047Z,312.40
2019-06-10T08:53:03.690Z,310.20
2019-06-10T08:53:50.079Z,308.75
2019-06-10T08:54:50.952Z,307.74
2019-06-10T08:55:50.299Z,310.23
2019-06-10T08:56:50.716Z,309.86
2019-06-10T08:57:50.971Z,310.35
2019-06-10T08:58:49.650Z,311.31
2019-06-10T08:59:49.263Z,304.14
2019-06-10T09:00:49.484Z,310.64
2019-06-10T09:01:51.551Z,313.50
2019-06-10T09:02:50.815Z,309.65
2019-06-10T09:03:49.447Z,308.65
2019-06-10T09:04:50.389Z,311.06
2019-06-10T09:05:50.711Z,307.41
2019-06-10T09:06:50.592Z,304.85
2019-06-10T09:07:50.878Z,305.88
2019-06-10T09:08:51.273Z,308.10
2019-06-10T09:09:50.361Z,310.02
2019-06-10T09:10:49.858Z,312.22
2019-06-10T09:11:51.303Z,314.67
2019-06-10T09:12:50.980Z,311.19
2019-06-10T09:13:50.354Z,307.12
2019-06-10T09:14:48.769Z,304.82
2019-06-10T09:16:03.685Z,307.83
2019-06-10T09:16:49.353Z,304.20
2019-06-10T09:17:49.632Z,311.29
2019-06-10T09:18:50.861Z,306.76
2019-06-10T09:19:50.066Z,312.01
2019-06-10T09:20:52.425Z,307.69
2019-06-10T09:21:52.412Z,310.23
2019-06-10T09:23:06.497Z,307.07
2019-06-10T09:23:55.869Z,306.72
2019-06-10T09:24:52.367Z,306.93
2019-06-10T09:25:52.824Z,308.29
2019-06-10T09:26:51.247Z,307.84
2019-06-10T09:27:49.403Z,308.59
2019-06-10T09:28:52.419Z,309.03
2019-06-10T09:29:52.104Z,313.92
2019-06-10T09:30:54.109Z,316.57
2019-06-10T09:31:51.305Z,309.28
2019-06-10T09:32:51.203Z,314.54
2019-06-10T09:33:50.762Z,312.53
2019-06-10T09:34:52.296Z,309.89
2019-06-10T09:35:50.933Z,298.74
2019-06-10T09:36:50.089Z,302.83
2019-06-10T09:37:51.120Z,309.84
2019-06-10T09:38:49.068Z,308.03
2019-06-10T09:39:52.493Z,304.59
2019-06-10T09:40:53.233Z,312.74
2019-06-10T09:41:59.716Z,308.82
2019-06-10T09:42:52.028Z,314.55
2019-06-10T09:43:50.823Z,314.44
2019-06-10T09:44:50.312Z,315.59
2019-06-10T09:45:49.139Z,311.54
2019-06-10T09:46:48.984Z,310.93
2019-06-10T09:47:53.002Z,303.57
2019-06-10T09:48:50.307Z,318.64
2019-06-10T09:49:50.207Z,306.20
2019-06-10T09:50:52.394Z,312.58
2019-06-10T09:51:50.646Z,312.62
2019-06-10T09:52:52.417Z,308.48
2019-06-10T09:53:56.176Z,308.51
2019-06-10T09:54:55.695Z,306.59
2019-06-10T09:55:51.000Z,298.32
2019-06-10T09:56:48.822Z,301.87
2019-06-10T09:57:49.761Z,308.67
2019-06-10T09:58:49.667Z,303.44
2019-06-10T09:59:51.368Z,302.34
2019-06-10T10:00:50.836Z,312.16
2019-06-10T10:01:50.972Z,310.25
2019-06-10T10:02:51.485Z,313.28
2019-06-10T10:03:53.484Z,310.54
2019-06-10T10:04:52.554Z,300.83
2019-06-10T10:05:59.444Z,304.23
2019-06-10T10:06:50.514Z,303.90
2019-06-10T10:07:50.771Z,299.50
2019-06-10T10:08:51.467Z,307.03
2019-06-10T10:09:51.396Z,313.67
2019-06-10T10:10:51.085Z,304.93
2019-06-10T10:11:49.266Z,303.05
2019-06-10T10:12:49.022Z,305.88
2019-06-10T10:13:49.431Z,306.37
2019-06-10T10:14:54.239Z,304.19
2019-06-10T10:15:48.236Z,305.93
2019-06-10T10:16:52.256Z,306.36
2019-06-10T10:17:49.493Z,305.21
2019-06-10T10:18:49.473Z,308.94
2019-06-10T10:19:49.659Z,300.84
2019-06-10T10:20:49.586Z,305.21
2019-06-10T10:21:51.230Z,311.10
2019-06-10T10:22:49.247Z,312.18
2019-06-10T10:23:54.017Z,303.25
2019-06-10T10:24:49.252Z,309.70
2019-06-10T10:25:48.251Z,309.52
2019-06-10T10:26:49.077Z,307.88
2019-06-10T10:27:50.871Z,302.19
2019-06-10T10:28:48.775Z,311.56
2019-06-10T10:29:48.877Z,311.93
2019-06-10T10:30:49.197Z,304.32
2019-06-10T10:31:49.474Z,310.76
2019-06-10T10:32:50.484Z,309.95
2019-06-10T10:33:46.838Z,310.52
2019-06-10T10:34:48.343Z,303.60
2019-06-10T10:35:48.021Z,309.99
2019-06-10T10:36:48.362Z,300.58
2019-06-10T10:37:46.696Z,307.32
2019-06-10T10:38:46.808Z,305.14
2019-06-10T10:39:46.731Z,305.76
2019-06-10T10:40:48.801Z,305.44
2019-06-10T10:41:47.142Z,307.00
2019-06-10T10:42:52.223Z,298.48
2019-06-10T10:43:51.212Z,305.20
2019-06-10T10:44:50.008Z,304.96
2019-06-10T10:45:50.347Z,305.83
2019-06-10T10:46:47.609Z,297.33
2019-06-10T10:47:46.961Z,303.37
2019-06-10T10:48:47.091Z,307.68
2019-06-10T10:49:47.046Z,306.11
2019-06-10T10:50:47.481Z,307.14
2019-06-10T10:51:46.988Z,307.55
2019-06-10T10:52:48.201Z,305.88
2019-06-10T10:53:50.533Z,303.45
2019-06-10T10:54:47.937Z,313.43
2019-06-10T10:55:47.188Z,307.64
2019-06-10T10:56:49.189Z,312.71
2019-06-10T10:57:47.288Z,303.49
2019-06-10T10:58:47.677Z,303.82
2019-06-10T10:59:47.760Z,304.47
2019-06-10T11:00:49.310Z,309.25
2019-06-10T11:01:47.530Z,306.81
2019-06-10T11:02:48.735Z,305.31
2019-06-10T11:03:48.157Z,304.80
2019-06-10T11:04:47.899Z,304.32
2019-06-10T11:05:49.484Z,307.14
2019-06-10T11:06:47.760Z,304.85
2019-06-10T11:07:47.537Z,308.87
2019-06-10T11:08:48.034Z,306.28
2019-06-10T11:09:46.983Z,305.79
2019-06-10T11:10:48.200Z,304.83
2019-06-10T11:11:47.222Z,307.75
2019-06-10T11:12:46.995Z,307.61
2019-06-10T11:13:47.386Z,308.42
2019-06-10T11:14:46.986Z,307.04
2019-06-10T11:15:47.336Z,308.33
2019-06-10T11:16:47.169Z,310.27
2019-06-10T11:17:47.258Z,307.80
2019-06-10T11:18:47.178Z,307.92
2019-06-10T11:19:47.285Z,308.60
2019-06-10T11:20:47.351Z,309.82
2019-06-10T11:21:47.387Z,306.53
2019-06-10T11:22:47.499Z,312.88
2019-06-10T11:23:46.293Z,307.80
2019-06-10T11:24:47.791Z,307.95
2019-06-10T11:25:46.154Z,306.89
2019-06-10T11:26:46.154Z,306.60
2019-06-10T11:27:46.423Z,311.31
2019-06-10T11:28:47.363Z,308.06
2019-06-10T11:29:46.172Z,308.33
2019-06-10T11:30:47.277Z,307.10
2019-06-10T11:31:46.303Z,309.30
2019-06-10T11:32:46.215Z,311.49
2019-06-10T11:33:46.890Z,313.61
2019-06-10T11:34:46.346Z,311.67
2019-06-10T11:35:46.724Z,309.73
2019-06-10T11:36:46.240Z,306.40
2019-06-10T11:37:46.828Z,305.71
2019-06-10T11:38:46.292Z,309.11
2019-06-10T11:39:46.017Z,306.17
2019-06-10T11:40:47.149Z,309.02
2019-06-10T11:41:46.005Z,309.46
2019-06-10T11:42:46.314Z,308.49
2019-06-10T11:43:46.340Z,310.99
2019-06-10T11:44:46.376Z,311.75
2019-06-10T11:45:51.155Z,312.01
2019-06-10T11:46:46.926Z,310.54
2019-06-10T11:47:46.680Z,311.22
2019-06-10T11:48:46.990Z,305.51
2019-06-10T11:49:46.878Z,308.24
2019-06-10T11:50:47.038Z,307.66
2019-06-10T11:51:47.102Z,306.47
2019-06-10T11:52:45.870Z,312.40
2019-06-10T11:53:45.862Z,308.73
2019-06-10T11:54:55.733Z,309.41
2019-06-10T11:55:47.651Z,310.00
2019-06-10T11:56:45.847Z,307.19
2019-06-10T11:57:45.814Z,305.23
2019-06-10T11:58:45.818Z,309.16
2019-06-10T11:59:45.853Z,303.35
2019-06-10T12:00:45.784Z,305.79
2019-06-10T12:01:45.784Z,305.32
2019-06-10T12:02:45.762Z,308.22
2019-06-10T12:03:45.748Z,306.30
2019-06-10T12:04:45.771Z,306.43
2019-06-10T12:05:45.802Z,312.05
2019-06-10T12:06:45.713Z,309.32
2019-06-10T12:07:45.723Z,314.61
2019-06-10T12:08:45.689Z,308.41
2019-06-10T12:09:45.695Z,309.11
2019-06-10T12:10:45.688Z,309.76
2019-06-10T12:11:45.663Z,307.99
2019-06-10T12:12:45.665Z,304.00
2019-06-10T12:13:45.647Z,307.51
2019-06-10T12:14:45.685Z,303.69
2019-06-10T12:16:30.477Z,308.58
2019-06-10T12:17:51.050Z,307.59
2019-06-10T12:18:46.738Z,309.66
2019-06-10T12:19:45.575Z,309.54
2019-06-10T12:20:45.576Z,305.45
2019-06-10T12:21:45.554Z,306.56
2019-06-10T12:22:45.641Z,306.93
2019-06-10T12:23:45.527Z,308.16
2019-06-10T12:24:45.526Z,307.90
2019-06-10T12:25:47.939Z,311.04
2019-06-10T12:26:45.512Z,309.37
2019-06-10T12:27:45.489Z,308.80
2019-06-10T12:28:45.480Z,308.46
2019-06-10T12:29:45.527Z,306.39